sensor_id;sensor_type;location;lat;lon;timestamp;pressure;altitude;pressure_sealevel;temperature;humidity
17649;BME280;8943;51.110;-4.158;2023-05-10T00:01:51;100963.00;;;16.71;60.78
17649;BME280;8943;51.110;-4.158;2023-05-10T00:04:19;100964.13;;;16.69;60.75
17649;BME280;8943;51.110;-4.158;2023-05-10T00:06:48;100977.69;;;16.67;60.71
17649;BME280;8943;51.110;-4.158;2023-05-10T00:09:17;100967.09;;;16.66;60.86
17649;BME280;8943;51.110;-4.158;2023-05-10T00:11:45;100969.78;;;16.66;60.81
17649;BME280;8943;51.110;-4.158;2023-05-10T00:14:13;100956.47;;;16.64;60.67
17649;BME280;8943;51.110;-4.158;2023-05-10T00:16:42;100960.28;;;16.62;60.82
17649;BME280;8943;51.110;-4.158;2023-05-10T00:19:10;100961.00;;;16.64;60.95
17649;BME280;8943;51.110;-4.158;2023-05-10T00:21:38;100959.28;;;16.63;61.06
17649;BME280;8943;51.110;-4.158;2023-05-10T00:24:07;100961.88;;;16.64;61.04
17649;BME280;8943;51.110;-4.158;2023-05-10T00:26:35;100960.03;;;16.65;61.13
17649;BME280;8943;51.110;-4.158;2023-05-10T00:29:03;100955.31;;;16.67;61.12
17649;BME280;8943;51.110;-4.158;2023-05-10T00:31:31;100964.25;;;16.67;61.02
17649;BME280;8943;51.110;-4.158;2023-05-10T00:34:01;100964.97;;;16.69;61.24
17649;BME280;8943;51.110;-4.158;2023-05-10T00:36:29;100963.97;;;16.70;61.21
17649;BME280;8943;51.110;-4.158;2023-05-10T00:38:58;100957.47;;;16.73;61.30
17649;BME280;8943;51.110;-4.158;2023-05-10T00:41:26;100961.13;;;16.82;61.16
17649;BME280;8943;51.110;-4.158;2023-05-10T00:43:54;100960.94;;;16.83;60.85
17649;BME280;8943;51.110;-4.158;2023-05-10T00:46:23;100961.84;;;16.84;61.21
17649;BME280;8943;51.110;-4.158;2023-05-10T00:48:51;100957.41;;;16.83;61.31
17649;BME280;8943;51.110;-4.158;2023-05-10T00:51:21;100965.38;;;16.84;61.19
17649;BME280;8943;51.110;-4.158;2023-05-10T00:53:50;100960.94;;;16.83;61.19
17649;BME280;8943;51.110;-4.158;2023-05-10T00:56:19;100964.22;;;16.87;61.43
17649;BME280;8943;51.110;-4.158;2023-05-10T00:58:50;100966.91;;;16.87;61.07
17649;BME280;8943;51.110;-4.158;2023-05-10T01:01:19;100949.75;;;16.88;61.32
17649;BME280;8943;51.110;-4.158;2023-05-10T01:03:48;100962.75;;;16.92;61.16
17649;BME280;8943;51.110;-4.158;2023-05-10T01:06:16;100959.22;;;16.92;61.26
17649;BME280;8943;51.110;-4.158;2023-05-10T01:08:47;100962.47;;;16.95;61.26
17649;BME280;8943;51.110;-4.158;2023-05-10T01:11:15;100960.63;;;16.96;61.00
17649;BME280;8943;51.110;-4.158;2023-05-10T01:13:47;100954.81;;;17.01;61.23
17649;BME280;8943;51.110;-4.158;2023-05-10T01:16:20;100948.41;;;17.02;61.12
17649;BME280;8943;51.110;-4.158;2023-05-10T01:18:48;100967.13;;;17.03;61.13
17649;BME280;8943;51.110;-4.158;2023-05-10T01:21:23;100956.66;;;17.00;61.15
17649;BME280;8943;51.110;-4.158;2023-05-10T01:24:12;100961.03;;;17.01;61.05
17649;BME280;8943;51.110;-4.158;2023-05-10T01:27:10;100962.31;;;16.97;61.17
17649;BME280;8943;51.110;-4.158;2023-05-10T01:29:59;100961.78;;;16.93;61.07
17649;BME280;8943;51.110;-4.158;2023-05-10T01:32:48;100959.09;;;16.93;61.38
17649;BME280;8943;51.110;-4.158;2023-05-10T01:35:26;100962.91;;;16.91;61.22
17649;BME280;8943;51.110;-4.158;2023-05-10T01:38:01;100956.25;;;16.95;61.16
17649;BME280;8943;51.110;-4.158;2023-05-10T01:40:37;100959.38;;;16.90;61.13
17649;BME280;8943;51.110;-4.158;2023-05-10T01:43:10;100959.78;;;16.95;61.13
17649;BME280;8943;51.110;-4.158;2023-05-10T01:46:00;100960.63;;;16.96;61.06
17649;BME280;8943;51.110;-4.158;2023-05-10T01:48:41;100957.38;;;16.92;61.00
17649;BME280;8943;51.110;-4.158;2023-05-10T01:51:16;100958.22;;;16.93;61.04
17649;BME280;8943;51.110;-4.158;2023-05-10T01:53:58;100953.84;;;16.92;61.12
17649;BME280;8943;51.110;-4.158;2023-05-10T01:57:01;100967.63;;;16.89;61.04
17649;BME280;8943;51.110;-4.158;2023-05-10T01:59:35;100961.22;;;16.90;61.21
17649;BME280;8943;51.110;-4.158;2023-05-10T02:02:10;100961.91;;;16.92;61.18
17649;BME280;8943;51.110;-4.158;2023-05-10T02:04:42;100962.63;;;16.94;61.05
17649;BME280;8943;51.110;-4.158;2023-05-10T02:07:11;100964.00;;;16.98;61.23
17649;BME280;8943;51.110;-4.158;2023-05-10T02:09:44;100959.50;;;16.98;61.00
17649;BME280;8943;51.110;-4.158;2023-05-10T02:12:15;100955.41;;;16.94;61.31
17649;BME280;8943;51.110;-4.158;2023-05-10T02:14:44;100952.97;;;17.01;61.27
17649;BME280;8943;51.110;-4.158;2023-05-10T02:17:14;100958.34;;;17.01;61.44
17649;BME280;8943;51.110;-4.158;2023-05-10T02:19:47;100949.81;;;17.06;61.26
17649;BME280;8943;51.110;-4.158;2023-05-10T02:22:16;100944.44;;;17.06;61.31
17649;BME280;8943;51.110;-4.158;2023-05-10T02:24:46;100950.66;;;17.06;61.26
17649;BME280;8943;51.110;-4.158;2023-05-10T02:27:19;100959.75;;;17.05;61.21
17649;BME280;8943;51.110;-4.158;2023-05-10T02:29:49;100954.38;;;17.05;61.10
17649;BME280;8943;51.110;-4.158;2023-05-10T02:32:21;100960.75;;;17.04;61.22
17649;BME280;8943;51.110;-4.158;2023-05-10T02:34:52;100962.00;;;17.10;61.36
17649;BME280;8943;51.110;-4.158;2023-05-10T02:37:21;100960.31;;;17.09;61.28
17649;BME280;8943;51.110;-4.158;2023-05-10T02:39:51;100959.47;;;17.08;60.90
17649;BME280;8943;51.110;-4.158;2023-05-10T02:42:24;100967.66;;;17.07;61.08
17649;BME280;8943;51.110;-4.158;2023-05-10T02:44:54;100960.75;;;17.04;61.14
17649;BME280;8943;51.110;-4.158;2023-05-10T02:47:24;100962.59;;;17.04;61.07
17649;BME280;8943;51.110;-4.158;2023-05-10T02:49:53;100960.03;;;17.02;61.12
17649;BME280;8943;51.110;-4.158;2023-05-10T02:52:25;100959.19;;;17.02;60.95
17649;BME280;8943;51.110;-4.158;2023-05-10T02:54:55;100964.47;;;16.93;61.04
17649;BME280;8943;51.110;-4.158;2023-05-10T02:57:28;100957.09;;;16.95;61.24
17649;BME280;8943;51.110;-4.158;2023-05-10T03:00:00;100976.09;;;16.94;61.10
17649;BME280;8943;51.110;-4.158;2023-05-10T03:02:29;100976.09;;;16.94;61.03
17649;BME280;8943;51.110;-4.158;2023-05-10T03:04:59;100964.59;;;16.92;61.33
17649;BME280;8943;51.110;-4.158;2023-05-10T03:07:27;100960.78;;;16.94;61.19
17649;BME280;8943;51.110;-4.158;2023-05-10T03:09:55;100971.41;;;16.96;61.09
17649;BME280;8943;51.110;-4.158;2023-05-10T03:12:30;100960.91;;;16.93;61.18
17649;BME280;8943;51.110;-4.158;2023-05-10T03:15:03;100960.91;;;16.93;61.25
17649;BME280;8943;51.110;-4.158;2023-05-10T03:17:42;100960.63;;;16.96;60.98
17649;BME280;8943;51.110;-4.158;2023-05-10T03:20:24;100972.56;;;16.93;61.25
17649;BME280;8943;51.110;-4.158;2023-05-10T03:22:55;100971.41;;;16.96;61.03
17649;BME280;8943;51.110;-4.158;2023-05-10T03:25:26;100964.59;;;16.92;61.26
17649;BME280;8943;51.110;-4.158;2023-05-10T03:27:56;100965.34;;;16.94;61.23
17649;BME280;8943;51.110;-4.158;2023-05-10T03:30:25;100959.63;;;16.97;61.49
17649;BME280;8943;51.110;-4.158;2023-05-10T03:32:53;100961.19;;;16.99;61.14
17649;BME280;8943;51.110;-4.158;2023-05-10T03:35:23;100971.41;;;16.96;60.97
17649;BME280;8943;51.110;-4.158;2023-05-10T03:37:52;100959.63;;;16.97;61.12
17649;BME280;8943;51.110;-4.158;2023-05-10T03:40:20;100964.31;;;16.95;61.13
17649;BME280;8943;51.110;-4.158;2023-05-10T03:42:49;100969.72;;;16.95;60.98
17649;BME280;8943;51.110;-4.158;2023-05-10T03:45:17;100966.03;;;16.96;61.21
17649;BME280;8943;51.110;-4.158;2023-05-10T03:47:46;100962.31;;;16.97;60.97
17649;BME280;8943;51.110;-4.158;2023-05-10T03:50:14;100956.94;;;16.97;60.97
17649;BME280;8943;51.110;-4.158;2023-05-10T03:52:44;100957.94;;;16.96;61.03
17649;BME280;8943;51.110;-4.158;2023-05-10T03:55:12;100960.34;;;16.99;60.94
17649;BME280;8943;51.110;-4.158;2023-05-10T03:57:40;100952.69;;;17.04;60.86
17649;BME280;8943;51.110;-4.158;2023-05-10T04:00:10;100957.22;;;17.04;61.03
17649;BME280;8943;51.110;-4.158;2023-05-10T04:02:38;100950.66;;;17.06;61.13
17649;BME280;8943;51.110;-4.158;2023-05-10T04:05:07;100955.75;;;17.09;61.15
17649;BME280;8943;51.110;-4.158;2023-05-10T04:07:35;100955.75;;;17.09;60.81
17649;BME280;8943;51.110;-4.158;2023-05-10T04:10:06;100956.06;;;17.06;60.78
17649;BME280;8943;51.110;-4.158;2023-05-10T04:12:34;100960.75;;;17.04;60.70
17649;BME280;8943;51.110;-4.158;2023-05-10T04:15:03;100961.75;;;17.03;60.95
17649;BME280;8943;51.110;-4.158;2023-05-10T04:17:31;100958.63;;;16.98;60.74
17649;BME280;8943;51.110;-4.158;2023-05-10T04:19:59;100951.03;;;16.93;60.82
17649;BME280;8943;51.110;-4.158;2023-05-10T04:22:27;100950.47;;;16.90;61.03
17649;BME280;8943;51.110;-4.158;2023-05-10T04:24:55;100948.06;;;16.87;61.13
17649;BME280;8943;51.110;-4.158;2023-05-10T04:27:25;100956.84;;;16.89;61.24
17649;BME280;8943;51.110;-4.158;2023-05-10T04:29:53;100948.50;;;16.82;61.25
17649;BME280;8943;51.110;-4.158;2023-05-10T04:32:22;100959.03;;;16.76;61.16
17649;BME280;8943;51.110;-4.158;2023-05-10T04:34:51;100960.16;;;16.73;61.31
17649;BME280;8943;51.110;-4.158;2023-05-10T04:37:19;100959.69;;;16.68;61.22
17649;BME280;8943;51.110;-4.158;2023-05-10T04:39:48;100960.88;;;16.65;61.48
17649;BME280;8943;51.110;-4.158;2023-05-10T04:42:17;100961.88;;;16.64;61.59
17649;BME280;8943;51.110;-4.158;2023-05-10T04:44:47;100955.06;;;16.60;61.73
17649;BME280;8943;51.110;-4.158;2023-05-10T04:47:15;100962.00;;;16.63;61.70
17649;BME280;8943;51.110;-4.158;2023-05-10T04:49:46;100963.69;;;16.64;61.94
17649;BME280;8943;51.110;-4.158;2023-05-10T04:52:14;100966.38;;;16.64;61.64
17649;BME280;8943;51.110;-4.158;2023-05-10T04:54:44;100967.09;;;16.66;61.83
17649;BME280;8943;51.110;-4.158;2023-05-10T04:57:12;100960.88;;;16.65;61.86
17649;BME280;8943;51.110;-4.158;2023-05-10T04:59:41;100965.53;;;16.63;62.12
17649;BME280;8943;51.110;-4.158;2023-05-10T05:02:12;100961.56;;;16.67;62.08
17649;BME280;8943;51.110;-4.158;2023-05-10T05:04:40;100969.34;;;16.70;61.87
17649;BME280;8943;51.110;-4.158;2023-05-10T05:07:10;100968.63;;;16.68;61.79
17649;BME280;8943;51.110;-4.158;2023-05-10T05:09:39;100964.81;;;16.71;62.01
17649;BME280;8943;51.110;-4.158;2023-05-10T05:12:10;100976.84;;;16.77;61.74
17649;BME280;8943;51.110;-4.158;2023-05-10T05:14:43;100981.25;;;16.78;62.01
17649;BME280;8943;51.110;-4.158;2023-05-10T05:17:13;100980.53;;;16.76;61.83
17649;BME280;8943;51.110;-4.158;2023-05-10T05:19:42;100981.38;;;16.76;61.73
17649;BME280;8943;51.110;-4.158;2023-05-10T05:22:10;100979.25;;;16.80;61.92
17649;BME280;8943;51.110;-4.158;2023-05-10T05:24:38;100983.09;;;16.77;62.12
17649;BME280;8943;51.110;-4.158;2023-05-10T05:27:06;100991.88;;;16.79;61.92
17649;BME280;8943;51.110;-4.158;2023-05-10T05:29:36;100979.94;;;16.82;61.94
17649;BME280;8943;51.110;-4.158;2023-05-10T05:32:05;100992.69;;;16.89;61.62
17649;BME280;8943;51.110;-4.158;2023-05-10T05:34:36;100991.28;;;16.85;61.61
17649;BME280;8943;51.110;-4.158;2023-05-10T05:37:04;100993.25;;;16.83;61.46
17649;BME280;8943;51.110;-4.158;2023-05-10T05:39:33;100992.81;;;16.88;61.02
17649;BME280;8943;51.110;-4.158;2023-05-10T05:42:01;100996.38;;;16.79;61.12
17649;BME280;8943;51.110;-4.158;2023-05-10T05:44:29;100994.16;;;16.74;61.53
17649;BME280;8943;51.110;-4.158;2023-05-10T05:46:58;100993.28;;;16.73;61.40
17649;BME280;8943;51.110;-4.158;2023-05-10T05:49:26;101001.06;;;16.77;61.21
17649;BME280;8943;51.110;-4.158;2023-05-10T05:52:00;101002.63;;;16.79;60.94
17649;BME280;8943;51.110;-4.158;2023-05-10T05:54:34;101014.25;;;16.80;61.02
17649;BME280;8943;51.110;-4.158;2023-05-10T05:57:02;101010.28;;;16.84;61.43
17649;BME280;8943;51.110;-4.158;2023-05-10T05:59:32;101010.38;;;16.92;60.50
17649;BME280;8943;51.110;-4.158;2023-05-10T06:02:00;101015.34;;;16.87;61.11
17649;BME280;8943;51.110;-4.158;2023-05-10T06:04:29;101021.44;;;16.89;61.33
17649;BME280;8943;51.110;-4.158;2023-05-10T06:06:57;101015.47;;;16.95;61.41
17649;BME280;8943;51.110;-4.158;2023-05-10T06:09:26;101020.81;;;17.05;61.03
17649;BME280;8943;51.110;-4.158;2023-05-10T06:11:54;101023.19;;;17.08;61.12
17649;BME280;8943;51.110;-4.158;2023-05-10T06:14:23;101017.50;;;17.20;61.00
17649;BME280;8943;51.110;-4.158;2023-05-10T06:16:51;101010.97;;;17.23;60.92
17649;BME280;8943;51.110;-4.158;2023-05-10T06:19:19;101011.50;;;17.27;60.94
17649;BME280;8943;51.110;-4.158;2023-05-10T06:21:47;101013.47;;;17.34;60.98
17649;BME280;8943;51.110;-4.158;2023-05-10T06:24:19;101016.09;;;17.44;61.16
17649;BME280;8943;51.110;-4.158;2023-05-10T06:26:49;101021.59;;;17.52;60.68
17649;BME280;8943;51.110;-4.158;2023-05-10T06:29:18;101023.06;;;17.64;61.04
17649;BME280;8943;51.110;-4.158;2023-05-10T06:31:46;101020.78;;;17.69;60.55
17649;BME280;8943;51.110;-4.158;2023-05-10T06:34:14;101021.50;;;17.71;60.56
17649;BME280;8943;51.110;-4.158;2023-05-10T06:36:43;101027.13;;;17.78;60.57
17649;BME280;8943;51.110;-4.158;2023-05-10T06:39:11;101021.44;;;17.81;60.46
17649;BME280;8943;51.110;-4.158;2023-05-10T06:41:39;101028.59;;;17.90;60.56
17649;BME280;8943;51.110;-4.158;2023-05-10T06:44:10;101031.84;;;17.94;60.18
17649;BME280;8943;51.110;-4.158;2023-05-10T06:47:09;101034.31;;;17.87;59.85
17649;BME280;8943;51.110;-4.158;2023-05-10T06:49:40;101050.34;;;17.89;59.92
17649;BME280;8943;51.110;-4.158;2023-05-10T06:52:08;101047.94;;;17.86;59.44
17649;BME280;8943;51.110;-4.158;2023-05-10T06:54:37;101037.59;;;17.81;59.05
17649;BME280;8943;51.110;-4.158;2023-05-10T06:57:06;101033.38;;;17.79;59.13
17649;BME280;8943;51.110;-4.158;2023-05-10T07:02:25;101039.63;;;17.79;59.65
17649;BME280;8943;51.110;-4.158;2023-05-10T07:04:54;101034.44;;;17.86;59.77
17649;BME280;8943;51.110;-4.158;2023-05-10T07:07:26;101044.31;;;17.95;59.64
17649;BME280;8943;51.110;-4.158;2023-05-10T07:09:58;101036.63;;;18.00;59.30
17649;BME280;8943;51.110;-4.158;2023-05-10T07:12:30;101054.50;;;18.01;59.07
17649;BME280;8943;51.110;-4.158;2023-05-10T07:14:58;101060.28;;;18.06;58.60
17649;BME280;8943;51.110;-4.158;2023-05-10T07:17:29;101056.50;;;17.99;58.23
17649;BME280;8943;51.110;-4.158;2023-05-10T07:20:12;101048.88;;;17.94;58.62
17649;BME280;8943;51.110;-4.158;2023-05-10T07:22:42;101064.75;;;17.97;58.60
17649;BME280;8943;51.110;-4.158;2023-05-10T07:25:10;101051.94;;;17.99;58.47
17649;BME280;8943;51.110;-4.158;2023-05-10T07:27:45;101057.91;;;18.03;57.94
17649;BME280;8943;51.110;-4.158;2023-05-10T07:30:15;101041.03;;;18.01;58.47
17649;BME280;8943;51.110;-4.158;2023-05-10T07:32:46;101057.44;;;18.08;58.27
17649;BME280;8943;51.110;-4.158;2023-05-10T07:35:14;101058.66;;;18.13;58.44
17649;BME280;8943;51.110;-4.158;2023-05-10T07:37:42;101054.97;;;18.14;57.27
17649;BME280;8943;51.110;-4.158;2023-05-10T07:40:11;101035.41;;;18.12;57.43
17649;BME280;8943;51.110;-4.158;2023-05-10T07:42:39;101050.88;;;18.10;57.79
17649;BME280;8943;51.110;-4.158;2023-05-10T07:45:08;101052.59;;;18.11;58.24
17649;BME280;8943;51.110;-4.158;2023-05-10T07:47:41;101058.38;;;18.16;58.13
17649;BME280;8943;51.110;-4.158;2023-05-10T07:50:27;101057.75;;;18.22;57.83
17649;BME280;8943;51.110;-4.158;2023-05-10T07:52:56;101058.75;;;18.21;57.83
17649;BME280;8943;51.110;-4.158;2023-05-10T07:55:24;101045.78;;;18.25;57.99
17649;BME280;8943;51.110;-4.158;2023-05-10T07:57:53;101055.72;;;18.24;57.66
17649;BME280;8943;51.110;-4.158;2023-05-10T08:00:21;101059.22;;;18.17;57.58
17649;BME280;8943;51.110;-4.158;2023-05-10T08:02:49;101051.59;;;18.12;57.88
17649;BME280;8943;51.110;-4.158;2023-05-10T08:05:17;101062.66;;;18.09;57.68
17649;BME280;8943;51.110;-4.158;2023-05-10T08:07:47;101066.38;;;18.08;57.45
17649;BME280;8943;51.110;-4.158;2023-05-10T08:10:15;101061.59;;;18.02;57.14
17649;BME280;8943;51.110;-4.158;2023-05-10T08:12:44;101065.97;;;18.03;56.88
17649;BME280;8943;51.110;-4.158;2023-05-10T08:15:14;101067.69;;;18.04;56.98
17649;BME280;8943;51.110;-4.158;2023-05-10T08:17:44;101061.91;;;17.99;56.75
17649;BME280;8943;51.110;-4.158;2023-05-10T08:20:12;101063.91;;;17.97;56.61
17649;BME280;8943;51.110;-4.158;2023-05-10T08:22:57;101074.75;;;18.05;56.73
17649;BME280;8943;51.110;-4.158;2023-05-10T08:25:27;101076.31;;;18.08;57.33
17649;BME280;8943;51.110;-4.158;2023-05-10T08:27:55;101060.44;;;18.22;57.67
17649;BME280;8943;51.110;-4.158;2023-05-10T08:30:23;101091.34;;;18.46;57.40
17649;BME280;8943;51.110;-4.158;2023-05-10T08:32:51;101074.25;;;18.55;57.03
17649;BME280;8943;51.110;-4.158;2023-05-10T08:35:20;101069.91;;;18.62;55.71
17649;BME280;8943;51.110;-4.158;2023-05-10T08:37:48;101078.28;;;18.59;56.00
17649;BME280;8943;51.110;-4.158;2023-05-10T08:40:19;101088.09;;;18.60;55.34
17649;BME280;8943;51.110;-4.158;2023-05-10T08:42:53;101083.00;;;18.57;54.95
17649;BME280;8943;51.110;-4.158;2023-05-10T08:45:23;101079.09;;;18.51;55.54
17649;BME280;8943;51.110;-4.158;2023-05-10T08:47:52;101065.13;;;18.56;55.63
17649;BME280;8943;51.110;-4.158;2023-05-10T08:50:26;101088.78;;;18.62;54.97
17649;BME280;8943;51.110;-4.158;2023-05-10T08:52:58;101074.06;;;18.57;55.67
17649;BME280;8943;51.110;-4.158;2023-05-10T08:55:30;101073.91;;;18.58;55.80
17649;BME280;8943;51.110;-4.158;2023-05-10T08:58:00;101065.50;;;18.61;55.44
17649;BME280;8943;51.110;-4.158;2023-05-10T09:00:29;101077.31;;;18.60;55.76
17649;BME280;8943;51.110;-4.158;2023-05-10T09:03:00;101074.38;;;18.71;55.96
17649;BME280;8943;51.110;-4.158;2023-05-10T09:05:31;101080.22;;;18.85;56.23
17649;BME280;8943;51.110;-4.158;2023-05-10T09:08:00;101083.50;;;18.96;55.11
17649;BME280;8943;51.110;-4.158;2023-05-10T09:10:30;101089.38;;;18.92;54.49
17649;BME280;8943;51.110;-4.158;2023-05-10T09:12:59;101083.88;;;18.75;54.39
17649;BME280;8943;51.110;-4.158;2023-05-10T09:15:27;101090.59;;;18.71;53.96
17649;BME280;8943;51.110;-4.158;2023-05-10T09:17:55;101092.34;;;18.63;54.10
17649;BME280;8943;51.110;-4.158;2023-05-10T09:20:24;101098.06;;;18.60;54.48
17649;BME280;8943;51.110;-4.158;2023-05-10T09:22:52;101093.63;;;18.59;54.09
17649;BME280;8943;51.110;-4.158;2023-05-10T09:25:20;101090.19;;;18.48;54.01
17649;BME280;8943;51.110;-4.158;2023-05-10T09:27:53;101093.22;;;18.45;54.12
17649;BME280;8943;51.110;-4.158;2023-05-10T09:30:24;101091.97;;;18.40;55.02
17649;BME280;8943;51.110;-4.158;2023-05-10T09:32:54;101086.81;;;18.46;55.24
17649;BME280;8943;51.110;-4.158;2023-05-10T09:35:28;101079.78;;;18.53;54.74
17649;BME280;8943;51.110;-4.158;2023-05-10T09:37:59;101084.31;;;18.53;54.04
17649;BME280;8943;51.110;-4.158;2023-05-10T09:40:29;101102.19;;;18.54;54.21
17649;BME280;8943;51.110;-4.158;2023-05-10T09:43:00;101102.16;;;18.46;54.21
17649;BME280;8943;51.110;-4.158;2023-05-10T09:45:29;101099.91;;;18.41;54.35
17649;BME280;8943;51.110;-4.158;2023-05-10T09:47:58;101102.59;;;18.41;54.53
17649;BME280;8943;51.110;-4.158;2023-05-10T09:50:27;101099.75;;;18.43;54.47
17649;BME280;8943;51.110;-4.158;2023-05-10T09:52:57;101090.91;;;18.50;55.63
17649;BME280;8943;51.110;-4.158;2023-05-10T09:55:39;101083.78;;;18.67;54.92
17649;BME280;8943;51.110;-4.158;2023-05-10T09:58:09;101103.44;;;18.77;54.94
17649;BME280;8943;51.110;-4.158;2023-05-10T10:00:38;101116.72;;;18.89;54.55
17649;BME280;8943;51.110;-4.158;2023-05-10T10:03:12;101104.56;;;18.93;53.72
17649;BME280;8943;51.110;-4.158;2023-05-10T10:05:42;101103.53;;;18.86;53.79
17649;BME280;8943;51.110;-4.158;2023-05-10T10:08:11;101101.50;;;18.88;53.90
17649;BME280;8943;51.110;-4.158;2023-05-10T10:10:40;101103.25;;;18.97;54.19
17649;BME280;8943;51.110;-4.158;2023-05-10T10:13:13;101123.44;;;19.11;53.85
17649;BME280;8943;51.110;-4.158;2023-05-10T10:15:44;101114.22;;;19.21;53.92
17649;BME280;8943;51.110;-4.158;2023-05-10T10:18:13;101104.63;;;19.27;53.32
17649;BME280;8943;51.110;-4.158;2023-05-10T10:20:42;101103.66;;;19.28;54.03
17649;BME280;8943;51.110;-4.158;2023-05-10T10:23:10;101110.09;;;19.35;53.84
17649;BME280;8943;51.110;-4.158;2023-05-10T10:25:42;101118.56;;;19.40;53.45
17649;BME280;8943;51.110;-4.158;2023-05-10T10:28:21;101111.94;;;19.35;52.59
17649;BME280;8943;51.110;-4.158;2023-05-10T10:30:54;101120.69;;;19.28;53.11
17649;BME280;8943;51.110;-4.158;2023-05-10T10:33:40;101121.19;;;19.24;52.83
17649;BME280;8943;51.110;-4.158;2023-05-10T10:36:15;101116.94;;;19.21;52.44
17649;BME280;8943;51.110;-4.158;2023-05-10T10:38:59;101127.31;;;19.08;52.35
17649;BME280;8943;51.110;-4.158;2023-05-10T10:41:31;101114.53;;;18.92;52.73
17649;BME280;8943;51.110;-4.158;2023-05-10T10:44:26;101114.63;;;18.83;53.43
17649;BME280;8943;51.110;-4.158;2023-05-10T10:47:05;101112.56;;;18.76;53.48
17649;BME280;8943;51.110;-4.158;2023-05-10T10:49:42;101113.56;;;18.75;53.33
17649;BME280;8943;51.110;-4.158;2023-05-10T10:52:24;101114.13;;;18.79;54.40
17649;BME280;8943;51.110;-4.158;2023-05-10T10:55:01;101130.97;;;18.99;54.14
17649;BME280;8943;51.110;-4.158;2023-05-10T10:57:42;101138.13;;;19.08;53.13
17649;BME280;8943;51.110;-4.158;2023-05-10T11:00:26;101126.88;;;18.95;51.86
17649;BME280;8943;51.110;-4.158;2023-05-10T11:02:57;101124.75;;;18.81;52.66
17649;BME280;8943;51.110;-4.158;2023-05-10T11:05:41;101127.06;;;18.75;52.47
17649;BME280;8943;51.110;-4.158;2023-05-10T11:08:18;101127.78;;;18.68;53.00
17649;BME280;8943;51.110;-4.158;2023-05-10T11:10:51;101140.06;;;18.62;52.84
17649;BME280;8943;51.110;-4.158;2023-05-10T11:13:28;101124.13;;;18.51;53.31
17649;BME280;8943;51.110;-4.158;2023-05-10T11:15:59;101114.34;;;18.50;54.52
17649;BME280;8943;51.110;-4.158;2023-05-10T11:18:37;101124.66;;;18.72;54.20
17649;BME280;8943;51.110;-4.158;2023-05-10T11:21:08;101130.91;;;18.91;53.44
17649;BME280;8943;51.110;-4.158;2023-05-10T11:23:51;101125.22;;;19.02;52.93
17649;BME280;8943;51.110;-4.158;2023-05-10T11:26:23;101141.97;;;19.06;51.28
17649;BME280;8943;51.110;-4.158;2023-05-10T11:28:53;101125.34;;;18.92;52.03
17649;BME280;8943;51.110;-4.158;2023-05-10T11:31:27;101132.50;;;19.01;52.15
17649;BME280;8943;51.110;-4.158;2023-05-10T11:33:58;101144.03;;;19.12;51.57
17649;BME280;8943;51.110;-4.158;2023-05-10T11:36:27;101142.41;;;19.19;51.20
17649;BME280;8943;51.110;-4.158;2023-05-10T11:38:56;101133.50;;;19.26;51.66
17649;BME280;8943;51.110;-4.158;2023-05-10T11:41:31;101138.38;;;19.49;51.71
17649;BME280;8943;51.110;-4.158;2023-05-10T11:43:59;101134.09;;;19.64;52.31
17649;BME280;8943;51.110;-4.158;2023-05-10T11:46:30;101125.06;;;19.90;51.68
17649;BME280;8943;51.110;-4.158;2023-05-10T11:48:59;101143.75;;;20.17;51.83
17649;BME280;8943;51.110;-4.158;2023-05-10T11:51:33;101156.97;;;20.28;49.85
17649;BME280;8943;51.110;-4.158;2023-05-10T11:54:06;101127.56;;;20.25;49.89
17649;BME280;8943;51.110;-4.158;2023-05-10T11:56:36;101135.88;;;20.40;50.33
17649;BME280;8943;51.110;-4.158;2023-05-10T11:59:04;101138.47;;;20.50;49.34
17649;BME280;8943;51.110;-4.158;2023-05-10T12:01:34;101141.50;;;20.55;49.22
17649;BME280;8943;51.110;-4.158;2023-05-10T12:04:03;101146.91;;;20.63;49.14
17649;BME280;8943;51.110;-4.158;2023-05-10T12:06:34;101136.09;;;20.71;48.78
17649;BME280;8943;51.110;-4.158;2023-05-10T12:09:06;101149.47;;;20.81;48.95
17649;BME280;8943;51.110;-4.158;2023-05-10T12:11:37;101139.97;;;20.77;48.13
17649;BME280;8943;51.110;-4.158;2023-05-10T12:14:09;101132.88;;;20.60;47.81
17649;BME280;8943;51.110;-4.158;2023-05-10T12:16:38;101144.84;;;20.41;48.63
17649;BME280;8943;51.110;-4.158;2023-05-10T12:19:07;101128.88;;;20.29;49.04
17649;BME280;8943;51.110;-4.158;2023-05-10T12:21:35;101119.94;;;20.29;49.57
17649;BME280;8943;51.110;-4.158;2023-05-10T12:24:05;101137.44;;;20.51;50.41
17649;BME280;8943;51.110;-4.158;2023-05-10T12:26:35;101142.50;;;20.62;48.38
17649;BME280;8943;51.110;-4.158;2023-05-10T12:29:13;101150.59;;;20.46;46.97
17649;BME280;8943;51.110;-4.158;2023-05-10T12:31:51;101143.97;;;20.32;47.48
17649;BME280;8943;51.110;-4.158;2023-05-10T12:34:23;101146.81;;;20.22;47.95
17649;BME280;8943;51.110;-4.158;2023-05-10T12:36:52;101145.28;;;20.20;47.93
17649;BME280;8943;51.110;-4.158;2023-05-10T12:39:20;101144.13;;;20.22;48.59
17649;BME280;8943;51.110;-4.158;2023-05-10T12:41:48;101141.56;;;20.29;48.23
17649;BME280;8943;51.110;-4.158;2023-05-10T12:44:16;101145.16;;;20.38;48.71
17649;BME280;8943;51.110;-4.158;2023-05-10T12:46:44;101134.22;;;20.47;48.52
17649;BME280;8943;51.110;-4.158;2023-05-10T12:49:14;101142.50;;;20.62;48.34
17649;BME280;8943;51.110;-4.158;2023-05-10T12:51:43;101137.09;;;20.78;48.33
17649;BME280;8943;51.110;-4.158;2023-05-10T12:54:11;101143.69;;;20.92;47.35
17649;BME280;8943;51.110;-4.158;2023-05-10T12:56:39;101155.22;;;20.86;46.97
17649;BME280;8943;51.110;-4.158;2023-05-10T12:59:07;101155.03;;;20.55;46.08
17649;BME280;8943;51.110;-4.158;2023-05-10T13:01:35;101152.22;;;20.22;47.67
17649;BME280;8943;51.110;-4.158;2023-05-10T13:04:03;101140.03;;;20.18;48.55
17649;BME280;8943;51.110;-4.158;2023-05-10T13:06:33;101142.06;;;20.24;50.68
17649;BME280;8943;51.110;-4.158;2023-05-10T13:09:01;101136.72;;;20.41;50.20
17649;BME280;8943;51.110;-4.158;2023-05-10T13:11:30;101159.81;;;20.86;48.34
17649;BME280;8943;51.110;-4.158;2023-05-10T13:13:58;101165.69;;;21.22;46.97